createdAt,value
2022-12-02T00:01:03.861Z,100.00
2022-12-02T00:03:33.971Z,100.00
2022-12-02T00:06:01.767Z,100.00
2022-12-02T00:08:33.533Z,100.00
2022-12-02T00:11:05.665Z,100.00
2022-12-02T00:13:43.534Z,100.00
2022-12-02T00:16:16.842Z,100.00
2022-12-02T00:18:45.890Z,100.00
2022-12-02T00:21:13.775Z,100.00
2022-12-02T00:23:41.341Z,100.00
2022-12-02T00:26:09.164Z,100.00
2022-12-02T00:28:37.309Z,100.00
2022-12-02T00:31:06.796Z,100.00
2022-12-02T00:33:34.601Z,100.00
2022-12-02T00:36:04.433Z,100.00
2022-12-02T00:38:32.284Z,100.00
2022-12-02T00:41:01.075Z,100.00
2022-12-02T00:43:46.187Z,100.00
2022-12-02T00:46:33.437Z,100.00
2022-12-02T00:49:02.572Z,100.00
2022-12-02T00:51:31.749Z,100.00
2022-12-02T00:54:00.233Z,100.00
2022-12-02T00:56:29.764Z,100.00
2022-12-02T00:58:58.218Z,100.00
2022-12-02T01:01:30.880Z,100.00
2022-12-02T01:03:59.916Z,100.00
2022-12-02T01:06:27.728Z,100.00
2022-12-02T01:08:55.390Z,100.00
2022-12-02T01:11:22.927Z,100.00
2022-12-02T01:13:51.740Z,100.00
2022-12-02T01:16:21.882Z,100.00
2022-12-02T01:18:51.935Z,100.00
2022-12-02T01:21:20.825Z,100.00
2022-12-02T01:23:48.641Z,100.00
2022-12-02T01:26:16.308Z,100.00
2022-12-02T01:28:44.024Z,100.00
2022-12-02T01:31:11.887Z,100.00
2022-12-02T01:33:40.048Z,100.00
2022-12-02T01:36:09.905Z,100.00
2022-12-02T01:38:41.186Z,100.00
2022-12-02T01:41:12.686Z,100.00
2022-12-02T01:43:41.171Z,100.00
2022-12-02T01:46:09.659Z,100.00
2022-12-02T01:48:38.733Z,100.00
2022-12-02T01:51:09.683Z,100.00
2022-12-02T01:53:39.375Z,100.00
2022-12-02T01:56:08.617Z,100.00
2022-12-02T01:58:37.856Z,100.00
2022-12-02T02:01:24.439Z,100.00
2022-12-02T02:03:54.640Z,100.00
2022-12-02T02:06:22.851Z,100.00
2022-12-02T02:08:53.720Z,100.00
2022-12-02T02:11:22.818Z,100.00
2022-12-02T02:13:50.518Z,100.00
2022-12-02T02:16:19.731Z,100.00
2022-12-02T02:18:48.386Z,100.00
2022-12-02T02:21:24.655Z,100.00
2022-12-02T02:24:19.017Z,100.00
2022-12-02T02:26:49.684Z,100.00
2022-12-02T02:29:18.029Z,100.00
2022-12-02T02:31:46.335Z,100.00
2022-12-02T02:34:14.332Z,100.00
2022-12-02T02:36:42.066Z,100.00
2022-12-02T02:39:09.938Z,100.00
2022-12-02T02:41:39.290Z,100.00
2022-12-02T02:44:09.196Z,100.00
2022-12-02T02:46:37.373Z,100.00
2022-12-02T02:49:05.624Z,100.00
2022-12-02T02:51:33.717Z,100.00
2022-12-02T02:54:01.992Z,100.00
2022-12-02T02:56:30.446Z,100.00
2022-12-02T02:59:01.422Z,100.00
2022-12-02T03:01:33.690Z,100.00
2022-12-02T03:04:07.559Z,100.00
2022-12-02T03:06:36.966Z,100.00
2022-12-02T03:09:06.961Z,100.00
2022-12-02T03:11:36.789Z,100.00
2022-12-02T03:14:10.471Z,100.00
2022-12-02T03:16:43.755Z,100.00
2022-12-02T03:19:12.006Z,100.00
2022-12-02T03:21:40.117Z,100.00
2022-12-02T03:24:13.156Z,100.00
2022-12-02T03:26:41.408Z,100.00
2022-12-02T03:29:12.427Z,100.00
2022-12-02T03:31:40.652Z,100.00
2022-12-02T03:34:11.626Z,100.00
2022-12-02T03:36:42.726Z,100.00
2022-12-02T03:39:11.119Z,100.00
2022-12-02T03:41:41.094Z,100.00
2022-12-02T03:44:10.284Z,100.00
2022-12-02T03:46:38.344Z,100.00
2022-12-02T03:49:07.694Z,100.00
2022-12-02T03:52:01.326Z,100.00
2022-12-02T03:54:29.243Z,100.00
2022-12-02T03:56:57.729Z,100.00
2022-12-02T03:59:28.618Z,100.00
2022-12-02T04:01:56.517Z,100.00
2022-12-02T04:04:48.771Z,100.00
2022-12-02T04:07:16.803Z,100.00
2022-12-02T04:09:46.021Z,100.00
2022-12-02T04:12:15.730Z,100.00
2022-12-02T04:14:45.445Z,100.00
2022-12-02T04:17:13.736Z,100.00
2022-12-02T04:19:41.384Z,100.00
2022-12-02T04:22:10.654Z,100.00
2022-12-02T04:25:02.530Z,100.00
2022-12-02T04:27:30.175Z,100.00
2022-12-02T04:29:59.094Z,100.00
2022-12-02T04:32:27.706Z,100.00
2022-12-02T04:34:56.192Z,100.00
2022-12-02T04:37:23.760Z,100.00
2022-12-02T04:39:52.638Z,100.00
2022-12-02T04:42:20.155Z,100.00
2022-12-02T04:44:47.824Z,100.00
2022-12-02T04:47:16.810Z,100.00
2022-12-02T04:49:44.384Z,100.00
2022-12-02T04:52:12.144Z,100.00
2022-12-02T04:54:39.711Z,100.00
2022-12-02T04:57:12.104Z,100.00
2022-12-02T04:59:41.635Z,100.00
2022-12-02T05:02:11.640Z,100.00
2022-12-02T05:04:40.929Z,100.00
2022-12-02T05:07:09.358Z,100.00
2022-12-02T05:09:37.006Z,100.00
2022-12-02T05:12:05.635Z,100.00
2022-12-02T05:14:37.026Z,100.00
2022-12-02T05:17:06.099Z,100.00
2022-12-02T05:19:38.662Z,100.00
2022-12-02T05:22:08.805Z,100.00
2022-12-02T05:24:36.700Z,100.00
2022-12-02T05:27:04.657Z,100.00
2022-12-02T05:29:33.724Z,100.00
2022-12-02T05:32:01.478Z,100.00
2022-12-02T05:34:29.162Z,100.00
2022-12-02T05:36:58.622Z,100.00
2022-12-02T05:39:28.662Z,100.00
2022-12-02T05:41:57.672Z,100.00
2022-12-02T05:44:29.119Z,100.00
2022-12-02T05:47:02.490Z,100.00
2022-12-02T05:49:34.191Z,100.00
2022-12-02T05:52:16.917Z,100.00
2022-12-02T05:54:45.985Z,100.00
2022-12-02T05:57:25.981Z,100.00
2022-12-02T05:59:58.557Z,100.00
2022-12-02T06:02:34.577Z,100.00
2022-12-02T06:05:14.514Z,100.00
2022-12-02T06:07:42.274Z,100.00
2022-12-02T06:10:46.303Z,100.00
2022-12-02T06:13:19.461Z,100.00
2022-12-02T06:15:47.631Z,100.00
2022-12-02T06:18:18.729Z,100.00
2022-12-02T06:20:52.546Z,100.00
2022-12-02T06:23:21.713Z,100.00
2022-12-02T06:25:53.647Z,100.00
2022-12-02T06:28:24.726Z,100.00
2022-12-02T06:30:56.999Z,100.00
2022-12-02T06:33:29.871Z,100.00
2022-12-02T06:36:03.652Z,100.00
2022-12-02T06:38:37.151Z,100.00
2022-12-02T06:41:16.972Z,100.00
2022-12-02T06:44:05.661Z,100.00
2022-12-02T06:47:00.309Z,100.00
2022-12-02T06:49:37.836Z,100.00
2022-12-02T06:52:19.643Z,100.00
2022-12-02T06:54:47.368Z,100.00
2022-12-02T06:57:19.871Z,100.00
2022-12-02T06:59:53.746Z,100.00
2022-12-02T07:02:27.746Z,100.00
2022-12-02T07:04:56.292Z,100.00
2022-12-02T07:07:27.892Z,100.00
2022-12-02T07:09:57.721Z,100.00
2022-12-02T07:12:38.649Z,100.00
2022-12-02T07:15:22.722Z,100.00
2022-12-02T07:17:51.191Z,100.00
2022-12-02T07:20:27.585Z,100.00
2022-12-02T07:22:59.620Z,100.00
2022-12-02T07:25:38.570Z,100.00
2022-12-02T07:28:24.640Z,100.00
2022-12-02T07:30:57.742Z,100.00
2022-12-02T07:33:27.684Z,100.00
2022-12-02T07:35:55.198Z,100.00
2022-12-02T07:38:42.918Z,100.00
2022-12-02T07:41:11.346Z,100.00
2022-12-02T07:43:40.983Z,100.00
2022-12-02T07:46:08.666Z,100.00
2022-12-02T07:48:36.304Z,100.00
2022-12-02T07:51:03.892Z,100.00
2022-12-02T07:53:31.519Z,100.00
2022-12-02T07:55:59.203Z,100.00
2022-12-02T07:58:48.225Z,100.00
2022-12-02T08:01:20.275Z,100.00
2022-12-02T08:03:49.687Z,100.00
2022-12-02T08:06:17.316Z,100.00
2022-12-02T08:09:09.576Z,100.00
2022-12-02T08:11:37.060Z,100.00
2022-12-02T08:14:06.799Z,100.00
2022-12-02T08:16:36.713Z,100.00
2022-12-02T08:19:05.641Z,100.00
2022-12-02T08:21:34.637Z,100.00
2022-12-02T08:24:03.645Z,100.00
2022-12-02T08:26:31.291Z,100.00
2022-12-02T08:28:59.026Z,100.00
2022-12-02T08:31:27.275Z,100.00
2022-12-02T08:33:56.277Z,100.00
2022-12-02T08:36:48.107Z,100.00
2022-12-02T08:39:15.930Z,100.00
2022-12-02T08:41:43.601Z,100.00
2022-12-02T08:44:11.780Z,100.00
2022-12-02T08:46:39.496Z,100.00
2022-12-02T08:49:09.634Z,100.00
2022-12-02T08:51:37.697Z,100.00
2022-12-02T08:54:05.384Z,100.00
2022-12-02T08:56:34.675Z,100.00
2022-12-02T08:59:02.704Z,100.00
2022-12-02T09:01:30.713Z,100.00
2022-12-02T09:04:00.591Z,100.00
2022-12-02T09:06:34.345Z,100.00
2022-12-02T09:09:04.880Z,100.00
2022-12-02T09:11:33.319Z,100.00
2022-12-02T09:14:01.124Z,100.00
2022-12-02T09:16:28.820Z,100.00
2022-12-02T09:18:58.214Z,100.00
2022-12-02T09:21:27.736Z,100.00
2022-12-02T09:23:57.478Z,100.00
2022-12-02T09:26:25.630Z,100.00
2022-12-02T09:28:54.219Z,100.00
2022-12-02T09:31:22.015Z,100.00
2022-12-02T09:33:49.607Z,100.00
2022-12-02T09:36:18.447Z,100.00
2022-12-02T09:38:46.083Z,100.00
2022-12-02T09:41:15.359Z,100.00
2022-12-02T09:43:43.802Z,100.00
2022-12-02T09:46:11.434Z,100.00
2022-12-02T09:48:39.646Z,100.00
2022-12-02T09:51:08.739Z,100.00
2022-12-02T09:53:41.628Z,100.00
2022-12-02T09:56:37.662Z,100.00
2022-12-02T10:02:21.387Z,100.00
2022-12-02T10:04:49.965Z,100.00
2022-12-02T10:07:18.702Z,100.00
2022-12-02T10:09:46.730Z,100.00
2022-12-02T10:12:15.675Z,100.00
2022-12-02T10:14:49.190Z,100.00
2022-12-02T10:17:18.823Z,100.00
2022-12-02T10:19:48.678Z,100.00
2022-12-02T10:22:20.564Z,100.00
2022-12-02T10:24:50.988Z,100.00
2022-12-02T10:27:27.732Z,100.00
2022-12-02T10:29:59.629Z,100.00
2022-12-02T10:32:29.152Z,100.00
2022-12-02T10:35:05.743Z,100.00
2022-12-02T10:37:34.973Z,100.00
2022-12-02T10:40:14.770Z,100.00
2022-12-02T10:42:44.405Z,100.00
2022-12-02T10:45:22.669Z,100.00
2022-12-02T10:48:12.270Z,100.00
2022-12-02T10:50:41.646Z,100.00
2022-12-02T10:53:15.751Z,100.00
2022-12-02T10:55:44.635Z,100.00
2022-12-02T10:58:17.736Z,100.00
2022-12-02T11:00:45.679Z,100.00
2022-12-02T11:06:07.635Z,100.00
2022-12-02T11:08:36.802Z,100.00
2022-12-02T11:11:13.015Z,100.00
2022-12-02T11:13:54.712Z,100.00
2022-12-02T11:16:53.513Z,100.00
2022-12-02T11:19:43.248Z,100.00
2022-12-02T11:22:49.174Z,100.00
2022-12-02T11:25:52.998Z,100.00
2022-12-02T11:28:52.022Z,100.00
2022-12-02T11:31:25.537Z,100.00
2022-12-02T11:34:05.802Z,100.00
2022-12-02T11:36:36.837Z,100.00
2022-12-02T11:39:07.304Z,100.00
2022-12-02T11:42:09.642Z,100.00
2022-12-02T11:44:38.044Z,100.00
2022-12-02T11:47:07.039Z,100.00
2022-12-02T11:49:40.967Z,100.00
2022-12-02T11:52:20.244Z,100.00
2022-12-02T11:54:52.861Z,100.00
2022-12-02T11:57:24.227Z,100.00
2022-12-02T11:59:52.785Z,100.00
2022-12-02T12:02:47.372Z,100.00
2022-12-02T12:05:15.183Z,100.00
2022-12-02T12:07:45.309Z,100.00
2022-12-02T12:10:31.314Z,100.00
2022-12-02T12:13:22.214Z,100.00
2022-12-02T12:16:00.625Z,100.00
2022-12-02T12:18:41.849Z,100.00
2022-12-02T12:21:10.653Z,100.00
2022-12-02T12:23:39.703Z,100.00
2022-12-02T12:26:09.703Z,100.00
2022-12-02T12:28:39.144Z,100.00
2022-12-02T12:31:07.983Z,100.00
2022-12-02T12:33:37.665Z,100.00
2022-12-02T12:36:05.981Z,100.00
2022-12-02T12:38:35.631Z,100.00
2022-12-02T12:41:06.624Z,100.00
2022-12-02T12:43:35.073Z,100.00
2022-12-02T12:46:02.768Z,100.00
2022-12-02T12:48:32.659Z,100.00
2022-12-02T12:51:02.483Z,100.00
2022-12-02T12:53:30.124Z,100.00
2022-12-02T12:56:01.026Z,100.00
2022-12-02T12:58:29.312Z,100.00
2022-12-02T13:00:58.199Z,100.00
2022-12-02T13:03:25.925Z,100.00
2022-12-02T13:05:53.757Z,100.00
2022-12-02T13:08:23.052Z,100.00
2022-12-02T13:10:50.886Z,100.00
2022-12-02T13:13:18.629Z,100.00
2022-12-02T13:16:12.288Z,100.00
2022-12-02T13:18:39.917Z,100.00
2022-12-02T13:21:08.045Z,100.00
2022-12-02T13:23:37.660Z,100.00
2022-12-02T13:26:10.660Z,100.00
2022-12-02T13:28:41.647Z,100.00
2022-12-02T13:31:10.849Z,100.00
2022-12-02T13:33:38.852Z,100.00
2022-12-02T13:36:07.117Z,100.00
2022-12-02T13:38:34.743Z,100.00
2022-12-02T13:41:03.625Z,100.00
2022-12-02T13:43:36.670Z,100.00
2022-12-02T13:46:08.768Z,100.00
2022-12-02T13:48:36.409Z,100.00
2022-12-02T13:51:04.376Z,100.00
2022-12-02T13:53:32.068Z,100.00
2022-12-02T13:55:59.734Z,100.00
2022-12-02T13:58:28.699Z,100.00
2022-12-02T14:01:00.060Z,100.00
2022-12-02T14:03:27.872Z,100.00
2022-12-02T14:05:56.095Z,100.00
2022-12-02T14:08:24.160Z,100.00
2022-12-02T14:10:51.963Z,100.00
2022-12-02T14:13:21.487Z,100.00
2022-12-02T14:15:50.684Z,100.00
2022-12-02T14:18:42.501Z,100.00
2022-12-02T14:21:10.165Z,100.00
2022-12-02T14:23:37.854Z,99.86
2022-12-02T14:26:05.578Z,100.00
2022-12-02T14:28:35.073Z,100.00
2022-12-02T14:31:05.807Z,99.50
2022-12-02T14:34:09.643Z,99.47
2022-12-02T14:36:24.809Z,99.66
2022-12-02T14:38:52.627Z,99.92
2022-12-02T14:41:20.269Z,99.50
2022-12-02T14:43:47.914Z,99.26
2022-12-02T14:46:16.963Z,99.36
2022-12-02T14:48:44.571Z,99.38
2022-12-02T14:51:13.695Z,99.47
2022-12-02T14:53:48.035Z,99.65
2022-12-02T14:56:16.994Z,99.27
2022-12-02T14:58:44.725Z,99.35
2022-12-02T15:01:12.663Z,99.53
2022-12-02T15:03:41.539Z,99.14
2022-12-02T15:06:10.050Z,99.13
2022-12-02T15:08:37.818Z,99.62
2022-12-02T15:11:05.373Z,99.42
2022-12-02T15:13:33.642Z,99.16
2022-12-02T15:16:03.200Z,99.16
2022-12-02T15:18:31.032Z,99.20
2022-12-02T15:21:00.439Z,98.84
2022-12-02T15:23:28.006Z,99.18
2022-12-02T15:25:56.022Z,99.33
2022-12-02T15:28:23.733Z,99.20
2022-12-02T15:30:51.419Z,99.30
2022-12-02T15:33:19.105Z,98.99
2022-12-02T15:35:47.633Z,99.07
2022-12-02T15:38:16.914Z,98.65
2022-12-02T15:40:44.497Z,98.90
2022-12-02T15:43:13.088Z,99.10
2022-12-02T15:45:45.035Z,98.90
2022-12-02T15:48:16.644Z,98.33
2022-12-02T15:50:44.250Z,98.93
2022-12-02T15:53:12.127Z,98.59
2022-12-02T15:55:41.748Z,99.02
2022-12-02T15:58:09.679Z,99.02
2022-12-02T16:00:37.462Z,99.16
2022-12-02T16:03:05.026Z,99.17
2022-12-02T16:05:36.651Z,99.24
2022-12-02T16:08:04.773Z,99.44
2022-12-02T16:10:32.451Z,99.55
2022-12-02T16:13:01.328Z,99.62
2022-12-02T16:15:28.935Z,99.91
2022-12-02T16:17:56.826Z,100.00
2022-12-02T16:20:24.595Z,100.00
2022-12-02T16:22:52.236Z,100.00
2022-12-02T16:25:20.711Z,100.00
2022-12-02T16:27:48.310Z,100.00
2022-12-02T16:30:18.215Z,100.00
2022-12-02T16:32:46.640Z,100.00
2022-12-02T16:35:16.409Z,100.00
2022-12-02T16:37:44.044Z,100.00
2022-12-02T16:40:13.489Z,100.00
2022-12-02T16:42:41.057Z,100.00
2022-12-02T16:45:10.243Z,100.00
2022-12-02T16:47:39.134Z,100.00
2022-12-02T16:50:07.467Z,100.00
2022-12-02T16:52:35.648Z,100.00
2022-12-02T16:55:04.055Z,100.00
2022-12-02T16:57:32.138Z,100.00
2022-12-02T17:00:00.110Z,100.00
2022-12-02T17:02:32.093Z,100.00
2022-12-02T17:05:01.249Z,100.00
2022-12-02T17:07:28.980Z,100.00
2022-12-02T17:09:56.789Z,100.00
2022-12-02T17:12:28.757Z,100.00
2022-12-02T17:14:57.345Z,100.00
2022-12-02T17:17:44.797Z,100.00
2022-12-02T17:20:15.374Z,100.00
2022-12-02T17:22:43.973Z,100.00
2022-12-02T17:25:13.551Z,100.00
2022-12-02T17:27:41.508Z,100.00
2022-12-02T17:30:11.869Z,100.00
2022-12-02T17:32:40.654Z,100.00
2022-12-02T17:35:08.984Z,100.00
2022-12-02T17:37:37.921Z,100.00
2022-12-02T17:40:06.651Z,100.00
2022-12-02T17:42:34.821Z,100.00
2022-12-02T17:45:02.511Z,100.00
2022-12-02T17:47:30.138Z,100.00
2022-12-02T17:49:57.763Z,100.00
2022-12-02T17:52:25.648Z,100.00
2022-12-02T17:54:55.046Z,100.00
2022-12-02T17:57:22.992Z,100.00
2022-12-02T17:59:50.655Z,100.00
2022-12-02T18:02:19.258Z,100.00
2022-12-02T18:04:46.870Z,100.00
2022-12-02T18:07:14.752Z,100.00
2022-12-02T18:09:42.400Z,100.00
2022-12-02T18:12:11.311Z,100.00
2022-12-02T18:14:39.171Z,100.00
2022-12-02T18:17:07.378Z,100.00
2022-12-02T18:19:35.705Z,100.00
2022-12-02T18:22:03.324Z,100.00
2022-12-02T18:24:30.898Z,100.00
2022-12-02T18:26:58.543Z,100.00
2022-12-02T18:29:27.667Z,100.00
2022-12-02T18:31:55.623Z,100.00
2022-12-02T18:34:24.725Z,100.00
2022-12-02T18:36:52.635Z,100.00
2022-12-02T18:39:20.231Z,100.00
2022-12-02T18:41:47.816Z,100.00
2022-12-02T18:44:15.796Z,100.00
2022-12-02T18:46:44.804Z,100.00
2022-12-02T18:49:13.079Z,100.00
2022-12-02T18:51:41.147Z,100.00
2022-12-02T18:54:08.918Z,100.00
2022-12-02T18:56:36.542Z,100.00
2022-12-02T18:59:04.543Z,100.00
2022-12-02T19:01:41.808Z,100.00
2022-12-02T19:04:11.586Z,100.00
2022-12-02T19:06:39.977Z,100.00
2022-12-02T19:09:07.591Z,100.00
2022-12-02T19:11:35.142Z,100.00
2022-12-02T19:14:02.776Z,100.00
2022-12-02T19:16:31.785Z,100.00
2022-12-02T19:18:59.398Z,100.00
2022-12-02T19:21:29.121Z,100.00
2022-12-02T19:23:56.887Z,100.00
2022-12-02T19:26:25.629Z,100.00
2022-12-02T19:28:53.294Z,100.00
2022-12-02T19:31:21.959Z,100.00
2022-12-02T19:33:50.445Z,100.00
2022-12-02T19:36:18.717Z,100.00
2022-12-02T19:38:48.401Z,100.00
2022-12-02T19:41:16.879Z,100.00
2022-12-02T19:43:45.626Z,100.00
2022-12-02T19:46:14.012Z,100.00
2022-12-02T19:48:41.646Z,100.00
2022-12-02T19:51:09.235Z,100.00
2022-12-02T19:53:37.372Z,100.00
2022-12-02T19:56:06.802Z,100.00
2022-12-02T19:58:36.122Z,100.00
2022-12-02T20:01:04.329Z,100.00
2022-12-02T20:03:31.991Z,100.00
2022-12-02T20:06:02.587Z,100.00
2022-12-02T20:08:30.757Z,100.00
2022-12-02T20:10:58.524Z,100.00
2022-12-02T20:13:27.735Z,100.00
2022-12-02T20:15:58.590Z,100.00
2022-12-02T20:18:30.197Z,100.00
2022-12-02T20:20:57.846Z,100.00
2022-12-02T20:23:26.627Z,100.00
2022-12-02T20:25:54.730Z,100.00
2022-12-02T20:28:22.634Z,100.00
2022-12-02T20:30:51.814Z,100.00
2022-12-02T20:33:19.415Z,100.00
2022-12-02T20:35:47.214Z,100.00
2022-12-02T20:38:15.631Z,100.00
2022-12-02T20:40:43.645Z,100.00
2022-12-02T20:43:11.308Z,100.00
2022-12-02T20:45:41.637Z,100.00
2022-12-02T20:48:10.800Z,100.00
2022-12-02T20:50:39.774Z,100.00
2022-12-02T20:53:08.642Z,100.00
2022-12-02T20:55:36.231Z,100.00
2022-12-02T20:58:04.391Z,100.00
2022-12-02T21:00:32.173Z,100.00
2022-12-02T21:03:04.373Z,100.00
2022-12-02T21:05:35.554Z,100.00
2022-12-02T21:08:03.759Z,100.00
2022-12-02T21:10:31.658Z,100.00
2022-12-02T21:13:00.716Z,100.00
2022-12-02T21:15:34.007Z,100.00
2022-12-02T21:18:01.791Z,100.00
2022-12-02T21:20:30.709Z,100.00
2022-12-02T21:23:01.445Z,100.00
2022-12-02T21:25:29.029Z,100.00
2022-12-02T21:27:58.628Z,100.00
2022-12-02T21:30:26.363Z,100.00
2022-12-02T21:32:54.247Z,100.00
2022-12-02T21:35:22.084Z,100.00
2022-12-02T21:37:49.789Z,100.00
2022-12-02T21:40:19.597Z,100.00
2022-12-02T21:42:47.323Z,100.00
2022-12-02T21:45:15.063Z,100.00
2022-12-02T21:47:43.114Z,100.00
2022-12-02T21:50:12.746Z,100.00
2022-12-02T21:52:40.634Z,100.00
2022-12-02T21:55:09.096Z,100.00
2022-12-02T21:57:39.588Z,100.00
2022-12-02T22:00:09.562Z,100.00
2022-12-02T22:02:40.397Z,100.00
2022-12-02T22:05:09.130Z,100.00
2022-12-02T22:07:43.255Z,100.00
2022-12-02T22:10:14.314Z,100.00
2022-12-02T22:12:43.329Z,100.00
2022-12-02T22:15:12.247Z,100.00
2022-12-02T22:17:39.945Z,100.00
2022-12-02T22:20:08.799Z,100.00
2022-12-02T22:22:36.791Z,100.00
2022-12-02T22:25:05.846Z,100.00
2022-12-02T22:27:34.132Z,100.00
2022-12-02T22:30:03.129Z,100.00
2022-12-02T22:32:30.864Z,100.00
2022-12-02T22:34:58.416Z,100.00
2022-12-02T22:37:26.716Z,100.00
2022-12-02T22:39:54.305Z,100.00
2022-12-02T22:42:21.958Z,100.00
2022-12-02T22:44:49.690Z,100.00
2022-12-02T22:47:20.624Z,100.00
2022-12-02T22:49:49.119Z,100.00
2022-12-02T22:52:16.874Z,100.00
2022-12-02T22:54:44.464Z,100.00
2022-12-02T22:57:12.113Z,100.00
2022-12-02T22:59:39.671Z,100.00
2022-12-02T23:02:07.751Z,100.00
2022-12-02T23:04:38.416Z,100.00
2022-12-02T23:07:06.035Z,100.00
2022-12-02T23:09:33.667Z,100.00
2022-12-02T23:12:01.308Z,100.00
2022-12-02T23:14:29.670Z,100.00
2022-12-02T23:16:57.859Z,100.00
2022-12-02T23:19:27.599Z,100.00
2022-12-02T23:21:56.753Z,100.00
2022-12-02T23:24:24.634Z,100.00
2022-12-02T23:26:56.649Z,100.00
2022-12-02T23:29:25.614Z,100.00
2022-12-02T23:34:49.165Z,100.00
2022-12-02T23:37:22.691Z,100.00
2022-12-02T23:39:52.637Z,100.00
2022-12-02T23:42:20.242Z,100.00
2022-12-02T23:44:48.115Z,100.00
2022-12-02T23:47:16.068Z,100.00
2022-12-02T23:49:44.043Z,100.00
2022-12-02T23:52:11.749Z,100.00
2022-12-02T23:54:41.629Z,100.00
2022-12-02T23:57:10.620Z,100.00
2022-12-02T23:59:38.199Z,100.00
